Ardsley, Pennsylvania
Current Conditions -  °F | °C
As of 9:55 AM on Friday 19 Dec 2014 (Local Time) from KLOM Reporting Station
Overcast Overcast  
Wind Chill: 32°   Ceiling: 3100
Heat Index: 37°   Visibility: 10mi
Dew Point: 28°   Wind: 7mph
Humidity: 70%   Direction: 300°WNW
Pressure: 30.08"   Gusts: NA
Location:  40.1012°N, 75.1722°W
Report Text: KLOM 191455Z AUTO 30006KT 10SM OVC031 03/M02 A3008 RMK AO1
Loading
Personal Weather Stations






























Interactive Weather Map New forecast layout! Learn more

10-Day Weather Forecast

Advertisements
Track Severe Weather on mobile